sensor_id;sensor_type;location;lat;lon;timestamp;temperature;humidity
20284;DHT22;10301;50.832;4.080;2024-01-16T00:00:17;1.70;99.90
20284;DHT22;10301;50.832;4.080;2024-01-16T00:02:42;1.50;99.90
20284;DHT22;10301;50.832;4.080;2024-01-16T00:05:08;1.50;99.90
20284;DHT22;10301;50.832;4.080;2024-01-16T00:07:38;1.60;99.90
20284;DHT22;10301;50.832;4.080;2024-01-16T00:10:04;1.50;99.90
20284;DHT22;10301;50.832;4.080;2024-01-16T00:12:32;1.30;99.90
20284;DHT22;10301;50.832;4.080;2024-01-16T00:14:57;1.20;99.90
20284;DHT22;10301;50.832;4.080;2024-01-16T00:17:23;1.20;99.90
20284;DHT22;10301;50.832;4.080;2024-01-16T00:19:49;1.30;99.90
20284;DHT22;10301;50.832;4.080;2024-01-16T00:22:15;1.10;99.90
20284;DHT22;10301;50.832;4.080;2024-01-16T00:24:40;1.00;99.90
20284;DHT22;10301;50.832;4.080;2024-01-16T00:27:06;0.90;99.90
20284;DHT22;10301;50.832;4.080;2024-01-16T00:29:32;0.80;99.90
20284;DHT22;10301;50.832;4.080;2024-01-16T00:31:57;0.80;99.90
20284;DHT22;10301;50.832;4.080;2024-01-16T00:34:23;1.10;99.90
20284;DHT22;10301;50.832;4.080;2024-01-16T00:36:49;1.10;99.90
20284;DHT22;10301;50.832;4.080;2024-01-16T00:39:14;1.00;99.90
20284;DHT22;10301;50.832;4.080;2024-01-16T00:41:40;1.00;99.90
20284;DHT22;10301;50.832;4.080;2024-01-16T00:44:05;0.90;99.90
20284;DHT22;10301;50.832;4.080;2024-01-16T00:46:33;0.80;99.90
20284;DHT22;10301;50.832;4.080;2024-01-16T00:48:58;0.70;99.90
20284;DHT22;10301;50.832;4.080;2024-01-16T00:51:24;0.90;99.90
20284;DHT22;10301;50.832;4.080;2024-01-16T00:53:50;0.80;99.90
20284;DHT22;10301;50.832;4.080;2024-01-16T00:56:15;0.70;99.90
20284;DHT22;10301;50.832;4.080;2024-01-16T00:58:41;0.80;99.90
20284;DHT22;10301;50.832;4.080;2024-01-16T01:01:06;0.80;99.90
20284;DHT22;10301;50.832;4.080;2024-01-16T01:03:32;0.80;99.90
20284;DHT22;10301;50.832;4.080;2024-01-16T01:06:00;0.80;99.90
20284;DHT22;10301;50.832;4.080;2024-01-16T01:08:25;0.80;99.90
20284;DHT22;10301;50.832;4.080;2024-01-16T01:10:51;0.80;99.90
20284;DHT22;10301;50.832;4.080;2024-01-16T01:13:17;0.70;99.90
20284;DHT22;10301;50.832;4.080;2024-01-16T01:15:42;0.80;99.90
20284;DHT22;10301;50.832;4.080;2024-01-16T01:18:08;0.70;99.90
20284;DHT22;10301;50.832;4.080;2024-01-16T01:20:34;0.60;99.90
20284;DHT22;10301;50.832;4.080;2024-01-16T01:22:59;0.50;99.90
20284;DHT22;10301;50.832;4.080;2024-01-16T01:25:25;0.50;99.90
20284;DHT22;10301;50.832;4.080;2024-01-16T01:27:51;0.70;99.90
20284;DHT22;10301;50.832;4.080;2024-01-16T01:30:17;0.70;99.90
20284;DHT22;10301;50.832;4.080;2024-01-16T01:32:43;0.80;99.90
20284;DHT22;10301;50.832;4.080;2024-01-16T01:35:09;1.00;99.90
20284;DHT22;10301;50.832;4.080;2024-01-16T01:37:36;0.90;99.90
20284;DHT22;10301;50.832;4.080;2024-01-16T01:40:02;0.80;99.90
20284;DHT22;10301;50.832;4.080;2024-01-16T01:42:28;0.90;99.90
20284;DHT22;10301;50.832;4.080;2024-01-16T01:44:54;0.90;99.90
20284;DHT22;10301;50.832;4.080;2024-01-16T01:47:19;1.10;99.90
20284;DHT22;10301;50.832;4.080;2024-01-16T01:49:45;1.30;99.90
20284;DHT22;10301;50.832;4.080;2024-01-16T01:52:11;1.20;99.90
20284;DHT22;10301;50.832;4.080;2024-01-16T01:54:38;1.00;99.90
20284;DHT22;10301;50.832;4.080;2024-01-16T01:57:05;0.80;99.90
20284;DHT22;10301;50.832;4.080;2024-01-16T01:59:33;0.90;99.90
20284;DHT22;10301;50.832;4.080;2024-01-16T02:01:58;0.90;99.90
20284;DHT22;10301;50.832;4.080;2024-01-16T02:04:25;0.80;99.90
20284;DHT22;10301;50.832;4.080;2024-01-16T02:06:51;0.90;99.90
20284;DHT22;10301;50.832;4.080;2024-01-16T02:09:17;1.20;99.90
20284;DHT22;10301;50.832;4.080;2024-01-16T02:11:43;1.20;99.90
20284;DHT22;10301;50.832;4.080;2024-01-16T02:14:09;1.20;99.90
20284;DHT22;10301;50.832;4.080;2024-01-16T02:16:39;1.30;99.90
20284;DHT22;10301;50.832;4.080;2024-01-16T02:19:06;1.20;99.90
20284;DHT22;10301;50.832;4.080;2024-01-16T02:21:46;1.10;99.90
20284;DHT22;10301;50.832;4.080;2024-01-16T02:24:15;1.10;99.90
20284;DHT22;10301;50.832;4.080;2024-01-16T02:26:42;1.00;99.90
20284;DHT22;10301;50.832;4.080;2024-01-16T02:29:08;1.10;99.90
20284;DHT22;10301;50.832;4.080;2024-01-16T02:31:34;1.30;99.90
20284;DHT22;10301;50.832;4.080;2024-01-16T02:34:00;1.10;99.90
20284;DHT22;10301;50.832;4.080;2024-01-16T02:36:27;1.10;99.90
20284;DHT22;10301;50.832;4.080;2024-01-16T02:38:53;1.00;99.90
20284;DHT22;10301;50.832;4.080;2024-01-16T02:41:18;1.00;99.90
20284;DHT22;10301;50.832;4.080;2024-01-16T02:43:44;0.80;99.90
20284;DHT22;10301;50.832;4.080;2024-01-16T02:46:10;0.70;99.90
20284;DHT22;10301;50.832;4.080;2024-01-16T02:48:36;0.80;99.90
20284;DHT22;10301;50.832;4.080;2024-01-16T02:51:02;0.70;99.90
20284;DHT22;10301;50.832;4.080;2024-01-16T02:53:29;0.60;99.90
20284;DHT22;10301;50.832;4.080;2024-01-16T02:55:55;0.70;99.90
20284;DHT22;10301;50.832;4.080;2024-01-16T02:58:21;0.80;99.90
20284;DHT22;10301;50.832;4.080;2024-01-16T03:00:47;0.90;99.90
20284;DHT22;10301;50.832;4.080;2024-01-16T03:03:13;0.90;99.90
20284;DHT22;10301;50.832;4.080;2024-01-16T03:05:40;1.00;99.90
20284;DHT22;10301;50.832;4.080;2024-01-16T03:08:06;1.00;99.90
20284;DHT22;10301;50.832;4.080;2024-01-16T03:10:32;0.80;99.90
20284;DHT22;10301;50.832;4.080;2024-01-16T03:12:58;0.80;99.90
20284;DHT22;10301;50.832;4.080;2024-01-16T03:15:23;0.90;99.90
20284;DHT22;10301;50.832;4.080;2024-01-16T03:17:50;0.90;99.90
20284;DHT22;10301;50.832;4.080;2024-01-16T03:20:16;0.90;99.90
20284;DHT22;10301;50.832;4.080;2024-01-16T03:22:43;0.90;99.90
20284;DHT22;10301;50.832;4.080;2024-01-16T03:25:10;0.80;99.90
20284;DHT22;10301;50.832;4.080;2024-01-16T03:27:37;0.90;99.90
20284;DHT22;10301;50.832;4.080;2024-01-16T03:30:03;1.00;99.90
20284;DHT22;10301;50.832;4.080;2024-01-16T03:32:29;0.90;99.90
20284;DHT22;10301;50.832;4.080;2024-01-16T03:34:55;1.00;99.90
20284;DHT22;10301;50.832;4.080;2024-01-16T03:37:20;1.10;99.90
20284;DHT22;10301;50.832;4.080;2024-01-16T03:39:46;1.20;99.90
20284;DHT22;10301;50.832;4.080;2024-01-16T03:42:12;1.30;99.90
20284;DHT22;10301;50.832;4.080;2024-01-16T03:44:40;1.20;99.90
20284;DHT22;10301;50.832;4.080;2024-01-16T03:47:06;0.90;99.90
20284;DHT22;10301;50.832;4.080;2024-01-16T03:49:32;0.80;99.90
20284;DHT22;10301;50.832;4.080;2024-01-16T03:51:58;0.80;99.90
20284;DHT22;10301;50.832;4.080;2024-01-16T03:54:24;0.90;99.90
20284;DHT22;10301;50.832;4.080;2024-01-16T03:56:49;0.90;99.90
20284;DHT22;10301;50.832;4.080;2024-01-16T03:59:16;1.10;99.90
20284;DHT22;10301;50.832;4.080;2024-01-16T04:01:42;0.80;99.90
20284;DHT22;10301;50.832;4.080;2024-01-16T04:04:09;0.80;99.90
20284;DHT22;10301;50.832;4.080;2024-01-16T04:06:36;0.80;99.90
20284;DHT22;10301;50.832;4.080;2024-01-16T04:09:02;0.60;99.90
20284;DHT22;10301;50.832;4.080;2024-01-16T04:11:29;0.50;99.90
20284;DHT22;10301;50.832;4.080;2024-01-16T04:13:55;0.70;99.90
20284;DHT22;10301;50.832;4.080;2024-01-16T04:16:21;0.60;99.90
20284;DHT22;10301;50.832;4.080;2024-01-16T04:18:47;0.70;99.90
20284;DHT22;10301;50.832;4.080;2024-01-16T04:21:13;0.70;99.90
20284;DHT22;10301;50.832;4.080;2024-01-16T04:23:39;0.60;99.90
20284;DHT22;10301;50.832;4.080;2024-01-16T04:26:06;0.60;99.90
20284;DHT22;10301;50.832;4.080;2024-01-16T04:28:33;0.60;99.90
20284;DHT22;10301;50.832;4.080;2024-01-16T04:31:00;0.60;99.90
20284;DHT22;10301;50.832;4.080;2024-01-16T04:33:25;0.60;99.90
20284;DHT22;10301;50.832;4.080;2024-01-16T04:35:51;0.60;99.90
20284;DHT22;10301;50.832;4.080;2024-01-16T04:38:17;0.60;99.90
20284;DHT22;10301;50.832;4.080;2024-01-16T04:40:42;0.40;99.90
20284;DHT22;10301;50.832;4.080;2024-01-16T04:43:08;0.40;99.90
20284;DHT22;10301;50.832;4.080;2024-01-16T04:45:34;0.50;99.90
20284;DHT22;10301;50.832;4.080;2024-01-16T04:47:59;0.60;99.90
20284;DHT22;10301;50.832;4.080;2024-01-16T04:50:25;0.60;99.90
20284;DHT22;10301;50.832;4.080;2024-01-16T04:52:59;0.50;99.90
20284;DHT22;10301;50.832;4.080;2024-01-16T04:55:26;0.50;99.90
20284;DHT22;10301;50.832;4.080;2024-01-16T04:57:52;0.50;99.90
20284;DHT22;10301;50.832;4.080;2024-01-16T05:00:18;0.50;99.90
20284;DHT22;10301;50.832;4.080;2024-01-16T05:02:44;0.50;99.90
20284;DHT22;10301;50.832;4.080;2024-01-16T05:05:09;0.30;99.90
20284;DHT22;10301;50.832;4.080;2024-01-16T05:07:35;0.20;99.90
20284;DHT22;10301;50.832;4.080;2024-01-16T05:10:01;0.10;99.90
20284;DHT22;10301;50.832;4.080;2024-01-16T05:12:27;0.30;99.90
20284;DHT22;10301;50.832;4.080;2024-01-16T05:14:53;0.30;99.90
20284;DHT22;10301;50.832;4.080;2024-01-16T05:17:18;0.30;99.90
20284;DHT22;10301;50.832;4.080;2024-01-16T05:19:44;0.20;99.90
20284;DHT22;10301;50.832;4.080;2024-01-16T05:22:10;0.00;99.90
20284;DHT22;10301;50.832;4.080;2024-01-16T05:24:36;0.10;99.90
20284;DHT22;10301;50.832;4.080;2024-01-16T05:27:02;0.10;99.90
20284;DHT22;10301;50.832;4.080;2024-01-16T05:29:30;0.10;99.90
20284;DHT22;10301;50.832;4.080;2024-01-16T05:31:56;0.10;99.90
20284;DHT22;10301;50.832;4.080;2024-01-16T05:34:22;0.00;99.90
20284;DHT22;10301;50.832;4.080;2024-01-16T05:36:47;0.00;99.90
20284;DHT22;10301;50.832;4.080;2024-01-16T05:39:13;0.00;99.90
20284;DHT22;10301;50.832;4.080;2024-01-16T05:41:39;0.20;99.90
20284;DHT22;10301;50.832;4.080;2024-01-16T05:44:04;0.10;99.90
20284;DHT22;10301;50.832;4.080;2024-01-16T05:46:33;0.00;99.90
20284;DHT22;10301;50.832;4.080;2024-01-16T05:48:59;-0.20;99.90
20284;DHT22;10301;50.832;4.080;2024-01-16T05:51:28;-0.20;99.90
20284;DHT22;10301;50.832;4.080;2024-01-16T05:53:57;-0.20;99.90
20284;DHT22;10301;50.832;4.080;2024-01-16T05:56:22;-0.10;99.90
20284;DHT22;10301;50.832;4.080;2024-01-16T05:58:48;0.00;99.90
20284;DHT22;10301;50.832;4.080;2024-01-16T06:01:14;0.00;99.90
20284;DHT22;10301;50.832;4.080;2024-01-16T06:03:41;0.20;99.90
20284;DHT22;10301;50.832;4.080;2024-01-16T06:06:08;0.30;99.90
20284;DHT22;10301;50.832;4.080;2024-01-16T06:08:33;0.10;99.90
20284;DHT22;10301;50.832;4.080;2024-01-16T06:10:59;0.20;99.90
20284;DHT22;10301;50.832;4.080;2024-01-16T06:13:25;0.30;99.90
20284;DHT22;10301;50.832;4.080;2024-01-16T06:15:51;0.10;99.90
20284;DHT22;10301;50.832;4.080;2024-01-16T06:18:16;0.20;99.90
20284;DHT22;10301;50.832;4.080;2024-01-16T06:20:42;0.30;99.90
20284;DHT22;10301;50.832;4.080;2024-01-16T06:23:08;0.30;99.90
20284;DHT22;10301;50.832;4.080;2024-01-16T06:25:33;0.30;99.90
20284;DHT22;10301;50.832;4.080;2024-01-16T06:27:59;0.30;99.90
20284;DHT22;10301;50.832;4.080;2024-01-16T06:30:25;0.50;99.90
20284;DHT22;10301;50.832;4.080;2024-01-16T06:32:50;0.70;99.90
20284;DHT22;10301;50.832;4.080;2024-01-16T06:35:16;0.80;99.90
20284;DHT22;10301;50.832;4.080;2024-01-16T06:37:43;0.80;99.90
20284;DHT22;10301;50.832;4.080;2024-01-16T06:40:09;0.90;99.90
20284;DHT22;10301;50.832;4.080;2024-01-16T06:42:35;0.80;99.90
20284;DHT22;10301;50.832;4.080;2024-01-16T06:45:04;0.70;99.90
20284;DHT22;10301;50.832;4.080;2024-01-16T06:47:30;0.70;99.90
20284;DHT22;10301;50.832;4.080;2024-01-16T06:49:56;0.60;99.90
20284;DHT22;10301;50.832;4.080;2024-01-16T06:52:22;0.40;99.90
20284;DHT22;10301;50.832;4.080;2024-01-16T06:54:47;0.20;99.90
20284;DHT22;10301;50.832;4.080;2024-01-16T06:57:13;0.20;99.90
20284;DHT22;10301;50.832;4.080;2024-01-16T06:59:38;0.30;99.90
20284;DHT22;10301;50.832;4.080;2024-01-16T07:02:04;0.30;99.90
20284;DHT22;10301;50.832;4.080;2024-01-16T07:04:30;0.40;99.90
20284;DHT22;10301;50.832;4.080;2024-01-16T07:06:56;0.40;99.90
20284;DHT22;10301;50.832;4.080;2024-01-16T07:09:22;0.20;99.90
20284;DHT22;10301;50.832;4.080;2024-01-16T07:11:48;0.40;99.90
20284;DHT22;10301;50.832;4.080;2024-01-16T07:14:14;0.30;99.90
20284;DHT22;10301;50.832;4.080;2024-01-16T07:16:39;0.20;99.90
20284;DHT22;10301;50.832;4.080;2024-01-16T07:19:05;0.20;99.90
20284;DHT22;10301;50.832;4.080;2024-01-16T07:21:31;0.20;99.90
20284;DHT22;10301;50.832;4.080;2024-01-16T07:23:57;0.20;99.90
20284;DHT22;10301;50.832;4.080;2024-01-16T07:26:23;0.30;99.90
20284;DHT22;10301;50.832;4.080;2024-01-16T07:28:49;0.20;99.90
20284;DHT22;10301;50.832;4.080;2024-01-16T07:31:15;0.20;99.90
20284;DHT22;10301;50.832;4.080;2024-01-16T07:33:42;0.10;99.90
20284;DHT22;10301;50.832;4.080;2024-01-16T07:36:08;0.10;99.90
20284;DHT22;10301;50.832;4.080;2024-01-16T07:38:34;0.10;99.90
20284;DHT22;10301;50.832;4.080;2024-01-16T07:41:01;0.10;99.90
20284;DHT22;10301;50.832;4.080;2024-01-16T07:43:27;0.10;99.90
20284;DHT22;10301;50.832;4.080;2024-01-16T07:45:53;-0.10;99.90
20284;DHT22;10301;50.832;4.080;2024-01-16T07:48:18;0.00;99.90
20284;DHT22;10301;50.832;4.080;2024-01-16T07:50:44;0.00;99.90
20284;DHT22;10301;50.832;4.080;2024-01-16T07:53:11;0.00;99.90
20284;DHT22;10301;50.832;4.080;2024-01-16T07:55:37;0.00;99.90
20284;DHT22;10301;50.832;4.080;2024-01-16T07:58:02;0.00;99.90
20284;DHT22;10301;50.832;4.080;2024-01-16T08:00:30;0.30;99.90
20284;DHT22;10301;50.832;4.080;2024-01-16T08:02:56;0.50;99.90
20284;DHT22;10301;50.832;4.080;2024-01-16T08:05:21;0.40;99.90
20284;DHT22;10301;50.832;4.080;2024-01-16T08:07:51;0.30;99.90
20284;DHT22;10301;50.832;4.080;2024-01-16T08:10:17;0.40;99.90
20284;DHT22;10301;50.832;4.080;2024-01-16T08:12:42;0.60;99.90
20284;DHT22;10301;50.832;4.080;2024-01-16T08:15:09;0.70;99.90
20284;DHT22;10301;50.832;4.080;2024-01-16T08:17:35;0.70;99.90
20284;DHT22;10301;50.832;4.080;2024-01-16T08:20:00;0.70;99.90
20284;DHT22;10301;50.832;4.080;2024-01-16T08:22:26;0.70;99.90
20284;DHT22;10301;50.832;4.080;2024-01-16T08:24:51;0.70;99.90
20284;DHT22;10301;50.832;4.080;2024-01-16T08:27:18;0.70;99.90
20284;DHT22;10301;50.832;4.080;2024-01-16T08:29:44;0.80;99.90
20284;DHT22;10301;50.832;4.080;2024-01-16T08:32:10;0.80;99.90
20284;DHT22;10301;50.832;4.080;2024-01-16T08:34:35;0.90;99.90
20284;DHT22;10301;50.832;4.080;2024-01-16T08:37:01;0.90;99.90
20284;DHT22;10301;50.832;4.080;2024-01-16T08:39:27;0.80;99.90
20284;DHT22;10301;50.832;4.080;2024-01-16T08:41:54;1.00;99.90
20284;DHT22;10301;50.832;4.080;2024-01-16T08:44:19;1.00;99.90
20284;DHT22;10301;50.832;4.080;2024-01-16T08:46:45;1.20;99.90
20284;DHT22;10301;50.832;4.080;2024-01-16T08:49:11;1.30;99.90
20284;DHT22;10301;50.832;4.080;2024-01-16T08:51:39;1.30;99.90
20284;DHT22;10301;50.832;4.080;2024-01-16T08:54:06;1.40;99.90
20284;DHT22;10301;50.832;4.080;2024-01-16T08:56:32;1.50;99.90
20284;DHT22;10301;50.832;4.080;2024-01-16T08:58:58;1.60;99.90
20284;DHT22;10301;50.832;4.080;2024-01-16T09:01:23;1.40;99.90
20284;DHT22;10301;50.832;4.080;2024-01-16T09:03:49;1.10;99.90
20284;DHT22;10301;50.832;4.080;2024-01-16T09:06:15;1.20;99.90
20284;DHT22;10301;50.832;4.080;2024-01-16T09:08:41;1.20;99.90
20284;DHT22;10301;50.832;4.080;2024-01-16T09:11:07;1.20;99.90
20284;DHT22;10301;50.832;4.080;2024-01-16T09:13:32;1.30;99.90
20284;DHT22;10301;50.832;4.080;2024-01-16T09:15:59;1.50;99.90
20284;DHT22;10301;50.832;4.080;2024-01-16T09:18:24;1.70;99.90
20284;DHT22;10301;50.832;4.080;2024-01-16T09:20:50;1.60;99.90
20284;DHT22;10301;50.832;4.080;2024-01-16T09:23:16;1.70;99.90
20284;DHT22;10301;50.832;4.080;2024-01-16T09:25:41;1.70;99.90
20284;DHT22;10301;50.832;4.080;2024-01-16T09:28:07;1.40;99.90
20284;DHT22;10301;50.832;4.080;2024-01-16T09:30:32;1.30;99.90
20284;DHT22;10301;50.832;4.080;2024-01-16T09:32:58;1.40;99.90
20284;DHT22;10301;50.832;4.080;2024-01-16T09:35:24;1.60;99.90
20284;DHT22;10301;50.832;4.080;2024-01-16T09:37:50;1.60;99.90
20284;DHT22;10301;50.832;4.080;2024-01-16T09:40:16;1.50;99.90
20284;DHT22;10301;50.832;4.080;2024-01-16T09:42:42;1.40;99.90
20284;DHT22;10301;50.832;4.080;2024-01-16T09:45:09;1.20;99.90
20284;DHT22;10301;50.832;4.080;2024-01-16T09:47:34;1.40;99.90
20284;DHT22;10301;50.832;4.080;2024-01-16T09:50:03;1.40;99.90
20284;DHT22;10301;50.832;4.080;2024-01-16T09:52:29;1.40;99.90
20284;DHT22;10301;50.832;4.080;2024-01-16T09:54:55;1.50;99.90
20284;DHT22;10301;50.832;4.080;2024-01-16T09:57:26;1.40;99.90
20284;DHT22;10301;50.832;4.080;2024-01-16T09:59:52;1.40;99.90
20284;DHT22;10301;50.832;4.080;2024-01-16T10:02:19;1.50;99.90
20284;DHT22;10301;50.832;4.080;2024-01-16T10:04:48;1.30;99.90
20284;DHT22;10301;50.832;4.080;2024-01-16T10:07:15;1.50;99.90
20284;DHT22;10301;50.832;4.080;2024-01-16T10:09:41;1.50;99.90
20284;DHT22;10301;50.832;4.080;2024-01-16T10:12:07;1.70;99.90
20284;DHT22;10301;50.832;4.080;2024-01-16T10:14:34;1.80;99.90
20284;DHT22;10301;50.832;4.080;2024-01-16T10:17:04;1.80;99.90
20284;DHT22;10301;50.832;4.080;2024-01-16T10:19:51;1.80;99.90
20284;DHT22;10301;50.832;4.080;2024-01-16T10:22:24;1.70;99.90
20284;DHT22;10301;50.832;4.080;2024-01-16T10:25:11;1.70;99.90
20284;DHT22;10301;50.832;4.080;2024-01-16T10:27:42;1.70;99.90
20284;DHT22;10301;50.832;4.080;2024-01-16T10:30:08;1.60;99.90
20284;DHT22;10301;50.832;4.080;2024-01-16T10:32:35;1.60;99.90
20284;DHT22;10301;50.832;4.080;2024-01-16T10:40:07;1.60;99.90
20284;DHT22;10301;50.832;4.080;2024-01-16T10:42:33;1.40;99.90
20284;DHT22;10301;50.832;4.080;2024-01-16T10:44:58;1.60;99.90
20284;DHT22;10301;50.832;4.080;2024-01-16T10:47:24;1.60;99.90
20284;DHT22;10301;50.832;4.080;2024-01-16T10:49:50;1.80;99.90
20284;DHT22;10301;50.832;4.080;2024-01-16T10:52:17;2.00;99.90
20284;DHT22;10301;50.832;4.080;2024-01-16T10:54:43;2.00;99.90
20284;DHT22;10301;50.832;4.080;2024-01-16T10:57:14;2.00;99.90
20284;DHT22;10301;50.832;4.080;2024-01-16T11:00:05;2.00;99.90
20284;DHT22;10301;50.832;4.080;2024-01-16T11:02:43;1.90;99.90
20284;DHT22;10301;50.832;4.080;2024-01-16T11:05:12;2.00;99.90
20284;DHT22;10301;50.832;4.080;2024-01-16T11:07:38;2.10;99.90
20284;DHT22;10301;50.832;4.080;2024-01-16T11:10:07;2.20;99.90
20284;DHT22;10301;50.832;4.080;2024-01-16T11:12:34;2.20;99.90
20284;DHT22;10301;50.832;4.080;2024-01-16T11:15:00;2.10;99.90
20284;DHT22;10301;50.832;4.080;2024-01-16T11:17:30;2.30;99.90
20284;DHT22;10301;50.832;4.080;2024-01-16T11:19:57;2.30;99.90
20284;DHT22;10301;50.832;4.080;2024-01-16T11:22:23;2.40;99.90
20284;DHT22;10301;50.832;4.080;2024-01-16T11:27:36;2.20;99.90
20284;DHT22;10301;50.832;4.080;2024-01-16T11:30:04;2.40;99.90
20284;DHT22;10301;50.832;4.080;2024-01-16T11:32:40;2.30;99.90
20284;DHT22;10301;50.832;4.080;2024-01-16T11:35:07;2.40;99.90
20284;DHT22;10301;50.832;4.080;2024-01-16T11:37:34;2.40;99.90
20284;DHT22;10301;50.832;4.080;2024-01-16T11:42:47;2.80;99.90
20284;DHT22;10301;50.832;4.080;2024-01-16T11:48:23;2.80;99.90
20284;DHT22;10301;50.832;4.080;2024-01-16T11:50:48;2.90;99.90
20284;DHT22;10301;50.832;4.080;2024-01-16T11:53:33;3.00;99.90
20284;DHT22;10301;50.832;4.080;2024-01-16T11:58:48;2.80;99.90
20284;DHT22;10301;50.832;4.080;2024-01-16T12:01:19;2.70;99.90
20284;DHT22;10301;50.832;4.080;2024-01-16T12:03:46;2.60;99.90
20284;DHT22;10301;50.832;4.080;2024-01-16T12:06:16;2.60;99.90
20284;DHT22;10301;50.832;4.080;2024-01-16T12:08:41;2.70;99.90
20284;DHT22;10301;50.832;4.080;2024-01-16T12:11:07;2.70;99.90
20284;DHT22;10301;50.832;4.080;2024-01-16T12:13:33;3.00;99.90
20284;DHT22;10301;50.832;4.080;2024-01-16T12:16:02;3.20;99.90
20284;DHT22;10301;50.832;4.080;2024-01-16T12:18:29;3.20;99.90
20284;DHT22;10301;50.832;4.080;2024-01-16T12:20:55;3.10;99.90
20284;DHT22;10301;50.832;4.080;2024-01-16T12:23:21;3.20;99.90
20284;DHT22;10301;50.832;4.080;2024-01-16T12:25:52;3.20;99.90
20284;DHT22;10301;50.832;4.080;2024-01-16T12:28:20;2.90;99.90
20284;DHT22;10301;50.832;4.080;2024-01-16T12:30:50;3.00;99.90
20284;DHT22;10301;50.832;4.080;2024-01-16T12:33:20;2.90;99.90
20284;DHT22;10301;50.832;4.080;2024-01-16T12:35:46;2.90;99.90
20284;DHT22;10301;50.832;4.080;2024-01-16T12:38:13;2.80;99.90
20284;DHT22;10301;50.832;4.080;2024-01-16T12:40:40;2.70;99.90
20284;DHT22;10301;50.832;4.080;2024-01-16T12:43:08;2.70;99.90
20284;DHT22;10301;50.832;4.080;2024-01-16T12:45:37;2.60;99.90
20284;DHT22;10301;50.832;4.080;2024-01-16T12:48:03;2.70;99.90
20284;DHT22;10301;50.832;4.080;2024-01-16T12:50:30;2.90;99.90
20284;DHT22;10301;50.832;4.080;2024-01-16T12:53:06;3.00;99.90
20284;DHT22;10301;50.832;4.080;2024-01-16T12:55:33;3.20;99.90
20284;DHT22;10301;50.832;4.080;2024-01-16T12:58:18;3.40;99.90
20284;DHT22;10301;50.832;4.080;2024-01-16T13:00:48;3.20;99.90
20284;DHT22;10301;50.832;4.080;2024-01-16T13:03:21;2.90;99.90
20284;DHT22;10301;50.832;4.080;2024-01-16T13:06:00;2.90;99.90
20284;DHT22;10301;50.832;4.080;2024-01-16T13:08:27;2.80;99.90
20284;DHT22;10301;50.832;4.080;2024-01-16T13:11:06;2.80;99.90
20284;DHT22;10301;50.832;4.080;2024-01-16T13:13:33;2.90;99.90
20284;DHT22;10301;50.832;4.080;2024-01-16T13:15:59;3.00;99.90
20284;DHT22;10301;50.832;4.080;2024-01-16T13:18:27;3.00;99.90
20284;DHT22;10301;50.832;4.080;2024-01-16T13:20:53;2.90;99.90
20284;DHT22;10301;50.832;4.080;2024-01-16T13:23:20;2.90;99.90
20284;DHT22;10301;50.832;4.080;2024-01-16T13:25:47;2.80;99.90
20284;DHT22;10301;50.832;4.080;2024-01-16T13:28:14;2.80;99.90
20284;DHT22;10301;50.832;4.080;2024-01-16T13:30:41;2.80;99.90
20284;DHT22;10301;50.832;4.080;2024-01-16T13:33:07;2.90;99.90
20284;DHT22;10301;50.832;4.080;2024-01-16T13:35:39;2.80;99.90
20284;DHT22;10301;50.832;4.080;2024-01-16T13:38:06;2.90;99.90
20284;DHT22;10301;50.832;4.080;2024-01-16T13:40:32;2.90;99.90
20284;DHT22;10301;50.832;4.080;2024-01-16T13:42:58;2.90;99.90
20284;DHT22;10301;50.832;4.080;2024-01-16T13:45:24;3.00;99.90
20284;DHT22;10301;50.832;4.080;2024-01-16T13:47:50;3.00;99.90
20284;DHT22;10301;50.832;4.080;2024-01-16T13:50:15;3.00;99.90
20284;DHT22;10301;50.832;4.080;2024-01-16T13:52:43;3.00;99.90
20284;DHT22;10301;50.832;4.080;2024-01-16T13:55:09;3.20;99.90
20284;DHT22;10301;50.832;4.080;2024-01-16T13:57:35;3.10;99.90
20284;DHT22;10301;50.832;4.080;2024-01-16T14:00:05;3.00;99.90
20284;DHT22;10301;50.832;4.080;2024-01-16T14:02:32;2.90;99.90
20284;DHT22;10301;50.832;4.080;2024-01-16T14:05:00;3.00;99.90
20284;DHT22;10301;50.832;4.080;2024-01-16T14:07:26;3.20;99.90
20284;DHT22;10301;50.832;4.080;2024-01-16T14:09:51;3.30;99.90
20284;DHT22;10301;50.832;4.080;2024-01-16T14:12:17;3.40;99.90
20284;DHT22;10301;50.832;4.080;2024-01-16T14:14:44;3.40;99.90
20284;DHT22;10301;50.832;4.080;2024-01-16T14:17:11;3.50;99.90
20284;DHT22;10301;50.832;4.080;2024-01-16T14:19:37;3.40;99.90
20284;DHT22;10301;50.832;4.080;2024-01-16T14:22:04;3.60;99.90
20284;DHT22;10301;50.832;4.080;2024-01-16T14:24:29;3.60;99.90
20284;DHT22;10301;50.832;4.080;2024-01-16T14:26:55;3.80;99.90
20284;DHT22;10301;50.832;4.080;2024-01-16T14:29:22;3.80;99.90
20284;DHT22;10301;50.832;4.080;2024-01-16T14:31:48;3.80;99.90
20284;DHT22;10301;50.832;4.080;2024-01-16T14:34:14;3.80;99.90
20284;DHT22;10301;50.832;4.080;2024-01-16T14:36:41;3.70;99.90
20284;DHT22;10301;50.832;4.080;2024-01-16T14:39:07;3.60;99.90
20284;DHT22;10301;50.832;4.080;2024-01-16T14:41:39;3.70;99.90
20284;DHT22;10301;50.832;4.080;2024-01-16T14:44:08;3.70;99.90
20284;DHT22;10301;50.832;4.080;2024-01-16T14:46:37;3.90;99.90
20284;DHT22;10301;50.832;4.080;2024-01-16T14:49:03;3.90;99.90
20284;DHT22;10301;50.832;4.080;2024-01-16T14:51:29;4.00;99.90
20284;DHT22;10301;50.832;4.080;2024-01-16T14:53:55;3.90;99.90
20284;DHT22;10301;50.832;4.080;2024-01-16T14:56:21;3.90;99.90
20284;DHT22;10301;50.832;4.080;2024-01-16T14:58:46;3.80;99.90
20284;DHT22;10301;50.832;4.080;2024-01-16T15:01:12;3.80;99.90
20284;DHT22;10301;50.832;4.080;2024-01-16T15:03:38;3.70;99.90
20284;DHT22;10301;50.832;4.080;2024-01-16T15:06:04;3.80;99.90
20284;DHT22;10301;50.832;4.080;2024-01-16T15:08:30;3.70;99.90
20284;DHT22;10301;50.832;4.080;2024-01-16T15:10:58;3.70;99.90
20284;DHT22;10301;50.832;4.080;2024-01-16T15:13:26;3.40;99.90
20284;DHT22;10301;50.832;4.080;2024-01-16T15:15:52;3.40;99.90
20284;DHT22;10301;50.832;4.080;2024-01-16T15:18:19;3.60;99.90
20284;DHT22;10301;50.832;4.080;2024-01-16T15:20:45;3.60;99.90
20284;DHT22;10301;50.832;4.080;2024-01-16T15:23:11;3.50;99.90
20284;DHT22;10301;50.832;4.080;2024-01-16T15:25:37;3.50;99.90
20284;DHT22;10301;50.832;4.080;2024-01-16T15:28:03;3.50;99.90
20284;DHT22;10301;50.832;4.080;2024-01-16T15:30:29;3.20;99.90
20284;DHT22;10301;50.832;4.080;2024-01-16T15:32:57;3.10;99.90
20284;DHT22;10301;50.832;4.080;2024-01-16T15:35:22;2.90;99.90
20284;DHT22;10301;50.832;4.080;2024-01-16T15:37:48;2.80;99.90
20284;DHT22;10301;50.832;4.080;2024-01-16T15:40:14;2.90;99.90
20284;DHT22;10301;50.832;4.080;2024-01-16T15:42:41;2.60;99.90
20284;DHT22;10301;50.832;4.080;2024-01-16T15:45:08;2.50;99.90
20284;DHT22;10301;50.832;4.080;2024-01-16T15:47:35;2.40;99.90
20284;DHT22;10301;50.832;4.080;2024-01-16T15:50:01;2.50;99.90
20284;DHT22;10301;50.832;4.080;2024-01-16T15:52:28;2.50;99.90
20284;DHT22;10301;50.832;4.080;2024-01-16T15:54:54;2.30;99.90
20284;DHT22;10301;50.832;4.080;2024-01-16T15:57:19;2.20;99.90